Time;durP1;ratioP1;P1;durP2;ratioP2;P2;SDS_P1;SDS_P2;PMS_P1;PMS_P2;Temp;Humidity;BMP_temperature;BMP_pressure;BME280_temperature;BME280_humidity;BME280_pressure;Samples;Min_cycle;Max_cycle;Signal;HPM_P1;HPM_P2
2023/07/31 00:00:39;;;;;;;;;;;;;;;22.83;58.72;94305.72;5218076;22;20009;-80
2023/07/31 00:02:42;;;;;;;;;;;;;;;22.78;59.19;94316.34;5217221;22;19963;-82
2023/07/31 00:04:44;;;;;;;;;;;;;;;22.80;59.53;94310.72;5219228;22;20269;-82
2023/07/31 00:06:46;;;;;;;;;;;;;;;22.69;59.64;94315.09;5193009;22;20375;-84
2023/07/31 00:08:47;;;;;;;;;;;;;;;22.65;59.41;94314.81;5172996;23;19969;-82
2023/07/31 00:10:52;;;;;;;;;;;;;;;22.61;59.55;94312.88;5188236;22;19919;-83
2023/07/31 00:12:54;;;;;;;;;;;;;;;22.59;59.33;94313.09;5218137;22;20005;-81
2023/07/31 00:14:56;;;;;;;;;;;;;;;22.59;59.11;94313.09;5189465;22;19915;-82
2023/07/31 00:16:58;;;;;;;;;;;;;;;22.57;59.69;94314.41;5216715;22;19915;-81
2023/07/31 00:19:00;;;;;;;;;;;;;;;22.54;60.02;94301.53;5217198;22;20350;-82
2023/07/31 00:21:02;;;;;;;;;;;;;;;22.54;61.21;94320.22;5190091;22;19922;-84
2023/07/31 00:23:03;;;;;;;;;;;;;;;22.33;62.78;94313.72;5189636;22;20315;-84
2023/07/31 00:25:07;;;;;;;;;;;;;;;22.27;63.95;94307.50;5217841;22;20001;-85
2023/07/31 00:27:09;;;;;;;;;;;;;;;22.10;63.83;94304.78;5217172;22;19922;-83
2023/07/31 00:29:10;;;;;;;;;;;;;;;22.12;64.16;94300.03;5219071;22;19938;-84
2023/07/31 00:31:13;;;;;;;;;;;;;;;22.15;64.35;94293.41;5196123;22;19942;-84
2023/07/31 00:33:18;;;;;;;;;;;;;;;22.24;64.20;94286.63;5203751;22;19902;-82
2023/07/31 00:35:19;;;;;;;;;;;;;;;22.28;64.16;94274.44;5206411;22;19978;-82
2023/07/31 00:37:21;;;;;;;;;;;;;;;22.31;63.93;94276.63;5199313;22;19919;-85
2023/07/31 00:39:23;;;;;;;;;;;;;;;22.24;63.70;94267.97;5188687;22;20295;-84
2023/07/31 00:41:25;;;;;;;;;;;;;;;22.20;64.26;94264.13;5188116;22;19915;-82
2023/07/31 00:43:26;;;;;;;;;;;;;;;22.23;64.37;94274.34;5190154;22;19918;-80
2023/07/31 00:45:28;;;;;;;;;;;;;;;22.19;64.32;94276.66;5216845;22;20330;-81
2023/07/31 00:47:30;;;;;;;;;;;;;;;22.16;64.32;94277.16;5189998;22;20248;-82
2023/07/31 00:49:32;;;;;;;;;;;;;;;22.10;64.89;94280.78;5189325;22;20266;-83
2023/07/31 00:51:33;;;;;;;;;;;;;;;22.09;64.93;94279.97;5190583;22;19919;-82
2023/07/31 00:53:35;;;;;;;;;;;;;;;22.14;64.89;94281.13;5190850;22;20010;-83
2023/07/31 00:55:38;;;;;;;;;;;;;;;22.17;64.69;94283.28;5190315;22;19916;-83
2023/07/31 00:57:40;;;;;;;;;;;;;;;22.18;64.33;94279.59;5219018;22;20261;-84
2023/07/31 00:59:42;;;;;;;;;;;;;;;22.20;64.42;94272.13;5191165;22;19915;-84
2023/07/31 01:01:44;;;;;;;;;;;;;;;22.13;64.57;94274.94;5197630;22;20043;-82
2023/07/31 01:03:45;;;;;;;;;;;;;;;22.14;64.73;94281.13;5224823;22;19966;-83
2023/07/31 01:05:49;;;;;;;;;;;;;;;22.08;64.80;94269.53;5220454;22;19925;-84
2023/07/31 01:07:53;;;;;;;;;;;;;;;22.04;65.19;94266.53;5191153;22;20044;-84
2023/07/31 01:10:00;;;;;;;;;;;;;;;21.96;65.33;94266.94;5220888;22;19985;-84
2023/07/31 01:12:03;;;;;;;;;;;;;;;21.91;65.86;94269.50;5192201;22;20297;-82
2023/07/31 01:14:04;;;;;;;;;;;;;;;21.88;65.67;94264.66;5189079;22;20300;-82
2023/07/31 01:16:10;;;;;;;;;;;;;;;21.86;65.97;94264.09;5216140;22;19914;-84
2023/07/31 01:18:11;;;;;;;;;;;;;;;21.84;66.08;94260.88;5215278;22;19923;-82
2023/07/31 01:20:17;;;;;;;;;;;;;;;21.84;66.28;94255.53;5188925;22;19983;-82
2023/07/31 01:22:31;;;;;;;;;;;;;;;21.85;66.16;94257.13;5192957;22;19915;-78
2023/07/31 01:24:51;;;;;;;;;;;;;;;21.87;66.10;94255.84;5217047;22;19989;-83
2023/07/31 01:26:56;;;;;;;;;;;;;;;21.78;66.59;94261.81;5217635;22;19946;-82
2023/07/31 01:29:00;;;;;;;;;;;;;;;21.71;66.88;94263.84;5164143;22;20007;-84
2023/07/31 01:31:02;;;;;;;;;;;;;;;21.67;67.19;94261.63;5216931;22;19919;-85
2023/07/31 01:33:07;;;;;;;;;;;;;;;21.66;67.50;94248.53;5189034;22;19985;-83
2023/07/31 01:35:08;;;;;;;;;;;;;;;21.65;67.60;94261.06;5217243;22;19989;-83
2023/07/31 01:37:10;;;;;;;;;;;;;;;21.63;67.50;94259.69;5216183;22;19915;-82
2023/07/31 01:39:12;;;;;;;;;;;;;;;21.57;67.72;94261.44;5187539;22;19923;-83
2023/07/31 01:41:16;;;;;;;;;;;;;;;21.59;67.92;94258.53;5189936;22;19915;-85
2023/07/31 01:43:18;;;;;;;;;;;;;;;21.56;68.00;94251.03;5190549;22;19943;-83
2023/07/31 01:45:21;;;;;;;;;;;;;;;21.54;68.30;94256.59;5216678;22;19915;-82
2023/07/31 01:47:23;;;;;;;;;;;;;;;21.51;68.35;94251.75;5218510;22;19915;-82
2023/07/31 01:49:27;;;;;;;;;;;;;;;21.47;68.70;94250.59;5167316;22;20259;-80
2023/07/31 01:51:28;;;;;;;;;;;;;;;21.42;68.88;94245.97;5221396;22;19925;-82
2023/07/31 01:53:31;;;;;;;;;;;;;;;21.50;68.68;94251.97;5218609;22;20346;-84
2023/07/31 01:55:33;;;;;;;;;;;;;;;21.53;68.60;94257.66;5188653;22;19938;-83
2023/07/31 01:57:36;;;;;;;;;;;;;;;21.55;68.78;94263.53;5163875;22;19954;-84
2023/07/31 01:59:39;;;;;;;;;;;;;;;21.53;68.96;94259.47;5188932;22;19958;-83
2023/07/31 02:01:41;;;;;;;;;;;;;;;21.43;69.29;94260.09;5215436;22;19988;-82
2023/07/31 02:03:43;;;;;;;;;;;;;;;21.42;69.27;94267.31;5188844;22;19915;-82
2023/07/31 02:05:46;;;;;;;;;;;;;;;21.46;69.01;94270.28;5189366;22;19919;-82
2023/07/31 02:07:47;;;;;;;;;;;;;;;21.45;69.01;94264.16;5217049;22;20203;-82
2023/07/31 02:09:49;;;;;;;;;;;;;;;21.39;69.34;94262.41;5217716;22;19915;-84
2023/07/31 02:11:52;;;;;;;;;;;;;;;21.43;69.44;94263.56;5189776;22;19937;-85
2023/07/31 02:13:54;;;;;;;;;;;;;;;21.44;69.36;94275.03;5223608;22;20276;-83
2023/07/31 02:15:58;;;;;;;;;;;;;;;21.33;69.69;94265.19;5219156;22;19946;-83
2023/07/31 02:17:59;;;;;;;;;;;;;;;21.24;70.22;94265.56;5215175;22;19922;-86
2023/07/31 02:20:02;;;;;;;;;;;;;;;21.20;70.25;94263.63;5215687;22;20347;-84
2023/07/31 02:22:03;;;;;;;;;;;;;;;21.17;70.45;94264.91;5216871;22;19930;-83
2023/07/31 02:24:06;;;;;;;;;;;;;;;21.26;70.27;94270.66;5189393;22;19951;-82
2023/07/31 02:26:09;;;;;;;;;;;;;;;21.24;70.31;94276.22;5188800;22;19916;-83
2023/07/31 02:28:11;;;;;;;;;;;;;;;21.27;70.18;94265.09;5189159;22;20026;-83
2023/07/31 02:30:13;;;;;;;;;;;;;;;21.31;70.01;94267.28;5216039;22;19923;-83
2023/07/31 02:32:20;;;;;;;;;;;;;;;21.38;69.83;94279.44;5190175;22;19939;-84
2023/07/31 02:34:22;;;;;;;;;;;;;;;21.40;69.95;94271.19;5216130;22;19926;-84
2023/07/31 02:36:23;;;;;;;;;;;;;;;21.33;69.87;94271.34;5216606;22;19937;-83
2023/07/31 02:38:25;;;;;;;;;;;;;;;21.40;69.53;94269.34;5163806;23;19915;-84
2023/07/31 02:40:28;;;;;;;;;;;;;;;21.51;69.47;94259.75;5189174;22;19923;-83
2023/07/31 02:42:29;;;;;;;;;;;;;;;21.56;68.96;94270.47;5193800;22;19949;-81
2023/07/31 02:44:31;;;;;;;;;;;;;;;21.55;69.16;94271.50;5172947;23;20450;-83
2023/07/31 02:46:33;;;;;;;;;;;;;;;21.51;68.89;94278.41;5226022;22;20325;-81
2023/07/31 02:48:35;;;;;;;;;;;;;;;21.51;68.79;94278.41;5198014;22;19969;-83
2023/07/31 02:50:37;;;;;;;;;;;;;;;21.53;68.94;94286.13;5194956;22;19956;-82
2023/07/31 02:52:39;;;;;;;;;;;;;;;21.43;69.11;94290.22;5190343;22;20376;-83
2023/07/31 02:54:40;;;;;;;;;;;;;;;21.44;69.25;94288.34;5216593;22;19988;-83
2023/07/31 02:56:42;;;;;;;;;;;;;;;21.49;68.97;94288.47;5215963;22;19915;-82
2023/07/31 02:58:45;;;;;;;;;;;;;;;21.51;68.99;94290.88;5216015;22;19944;-84
2023/07/31 03:00:47;;;;;;;;;;;;;;;21.58;68.56;94294.25;5216482;22;19922;-82
2023/07/31 03:02:49;;;;;;;;;;;;;;;21.59;68.49;94301.19;5189664;22;19991;-83
2023/07/31 03:04:52;;;;;;;;;;;;;;;21.61;68.50;94291.91;5190943;22;19915;-83
2023/07/31 03:06:53;;;;;;;;;;;;;;;21.65;68.40;94293.03;5217818;22;19950;-83
2023/07/31 03:08:56;;;;;;;;;;;;;;;21.65;68.34;94295.69;5217416;22;20245;-85
2023/07/31 03:10:58;;;;;;;;;;;;;;;21.73;68.02;94299.84;5216541;22;19915;-84
2023/07/31 03:13:07;;;;;;;;;;;;;;;21.76;68.00;94298.56;5216069;22;20226;-84
2023/07/31 03:15:09;;;;;;;;;;;;;;;21.80;68.01;94300.50;5162603;22;19930;-84
2023/07/31 03:17:10;;;;;;;;;;;;;;;21.79;68.10;94300.75;5187012;22;19957;-82
2023/07/31 03:19:12;;;;;;;;;;;;;;;21.68;68.61;94299.75;5215498;22;19945;-83
2023/07/31 03:21:14;;;;;;;;;;;;;;;21.75;68.45;94307.63;5215674;22;19922;-85
2023/07/31 03:23:18;;;;;;;;;;;;;;;21.76;68.47;94303.91;5216810;22;19982;-84
2023/07/31 03:25:20;;;;;;;;;;;;;;;21.78;68.33;94299.13;5188690;22;19915;-83
2023/07/31 03:27:23;;;;;;;;;;;;;;;21.79;67.92;94306.06;5216230;22;19964;-83
2023/07/31 03:29:25;;;;;;;;;;;;;;;21.78;68.08;94299.94;5189079;22;20238;-85
2023/07/31 03:31:26;;;;;;;;;;;;;;;21.71;68.20;94309.94;5214345;22;19915;-85
2023/07/31 03:33:28;;;;;;;;;;;;;;;21.78;67.79;94315.13;5189229;22;19915;-83
2023/07/31 03:35:31;;;;;;;;;;;;;;;21.81;67.70;94309.31;5216294;22;19957;-84
2023/07/31 03:37:33;;;;;;;;;;;;;;;21.83;67.67;94316.06;5189328;22;19951;-82
2023/07/31 03:39:35;;;;;;;;;;;;;;;21.85;67.30;94313.13;5188987;22;19915;-83
2023/07/31 03:41:37;;;;;;;;;;;;;;;21.80;67.35;94318.38;5188869;22;19958;-82
2023/07/31 03:43:39;;;;;;;;;;;;;;;21.82;67.10;94322.41;5220034;22;20226;-83
2023/07/31 03:45:40;;;;;;;;;;;;;;;21.85;67.08;94319.28;5216731;22;19918;-82
2023/07/31 03:47:42;;;;;;;;;;;;;;;21.85;67.02;94331.78;5164265;22;19979;-82
2023/07/31 03:49:44;;;;;;;;;;;;;;;21.79;67.55;94328.25;5190587;22;19919;-82
2023/07/31 03:51:46;;;;;;;;;;;;;;;21.75;67.30;94332.44;5217137;22;19937;-82
2023/07/31 03:53:47;;;;;;;;;;;;;;;21.70;67.63;94339.50;5218046;22;20299;-84
2023/07/31 03:55:52;;;;;;;;;;;;;;;21.70;67.63;94334.16;5191379;22;19940;-82
2023/07/31 03:57:54;;;;;;;;;;;;;;;21.78;67.60;94328.47;5167934;22;19919;-84
2023/07/31 03:59:57;;;;;;;;;;;;;;;21.77;67.54;94335.66;5221542;22;19934;-83
2023/07/31 04:02:00;;;;;;;;;;;;;;;21.65;68.03;94333.03;5221700;22;19997;-83
2023/07/31 04:04:01;;;;;;;;;;;;;;;21.68;67.93;94334.41;5219784;22;19938;-83
2023/07/31 04:06:03;;;;;;;;;;;;;;;21.75;67.69;94337.75;5219113;22;19915;-84
2023/07/31 04:08:06;;;;;;;;;;;;;;;21.81;67.78;94334.16;5166503;22;20353;-87
2023/07/31 04:10:08;;;;;;;;;;;;;;;21.84;67.39;94339.00;5192796;22;19939;-83
2023/07/31 04:12:14;;;;;;;;;;;;;;;21.87;67.24;94335.84;5199578;22;19926;-84
2023/07/31 04:14:17;;;;;;;;;;;;;;;21.87;67.17;94341.16;5224637;22;19953;-84
2023/07/31 04:16:19;;;;;;;;;;;;;;;21.85;67.10;94340.63;5229180;22;19965;-83
2023/07/31 04:18:21;;;;;;;;;;;;;;;21.90;67.26;94342.56;5178999;22;19968;-84
2023/07/31 04:20:23;;;;;;;;;;;;;;;21.94;66.80;94349.06;5227518;22;19919;-83
2023/07/31 04:22:24;;;;;;;;;;;;;;;21.90;66.96;94342.56;5228556;22;19914;-82
2023/07/31 04:24:27;;;;;;;;;;;;;;;21.87;67.29;94340.38;5171350;22;20415;-83
2023/07/31 04:26:29;;;;;;;;;;;;;;;21.91;66.90;94338.03;5224967;22;20257;-85
2023/07/31 04:28:31;;;;;;;;;;;;;;;21.93;66.87;94344.75;5200181;22;19919;-82
2023/07/31 04:30:33;;;;;;;;;;;;;;;21.82;67.23;94346.41;5176116;22;19935;-84
2023/07/31 04:32:41;;;;;;;;;;;;;;;21.81;66.88;94344.81;5204245;22;19922;-86
2023/07/31 04:34:54;;;;;;;;;;;;;;;21.83;66.79;94347.22;5213825;22;19919;-86
2023/07/31 04:36:56;;;;;;;;;;;;;;;21.89;66.34;94348.94;5238463;22;19915;-82
2023/07/31 04:38:59;;;;;;;;;;;;;;;21.84;66.49;94355.00;5239673;22;19930;-84
2023/07/31 04:41:01;;;;;;;;;;;;;;;21.95;66.49;94342.66;5212239;22;19914;-82
2023/07/31 04:43:04;;;;;;;;;;;;;;;21.95;65.88;94348.00;5211062;22;19934;-82
2023/07/31 04:45:08;;;;;;;;;;;;;;;22.06;65.58;94343.66;5238722;22;19915;-85
2023/07/31 04:47:10;;;;;;;;;;;;;;;22.11;65.48;94340.25;5238317;22;19918;-84
2023/07/31 04:49:12;;;;;;;;;;;;;;;22.12;65.34;94341.91;5212234;22;19911;-84
2023/07/31 04:51:14;;;;;;;;;;;;;;;22.08;65.15;94334.34;5212096;22;19903;-83
2023/07/31 04:53:16;;;;;;;;;;;;;;;22.04;65.54;94335.88;5211843;22;19998;-84
2023/07/31 04:55:18;;;;;;;;;;;;;;;22.17;65.01;94331.31;5238757;22;19922;-83
2023/07/31 04:57:21;;;;;;;;;;;;;;;22.27;64.71;94331.53;5213381;22;19925;-85
2023/07/31 04:59:23;;;;;;;;;;;;;;;22.37;64.55;94333.53;5212650;22;19919;-85
2023/07/31 05:01:25;;;;;;;;;;;;;;;22.46;64.29;94332.91;5232239;22;19926;-85
2023/07/31 05:03:26;;;;;;;;;;;;;;;22.49;64.19;94327.09;5202834;22;19959;-84
2023/07/31 05:05:28;;;;;;;;;;;;;;;22.48;64.13;94333.50;5233477;22;19925;-85
2023/07/31 05:07:30;;;;;;;;;;;;;;;22.53;63.68;94329.28;5208012;22;19982;-85
2023/07/31 05:09:32;;;;;;;;;;;;;;;22.47;63.90;94339.84;5233462;22;19941;-83
2023/07/31 05:11:34;;;;;;;;;;;;;;;22.51;64.27;94339.41;5220402;22;19915;-85
2023/07/31 05:13:38;;;;;;;;;;;;;;;22.53;63.71;94337.28;5218091;22;20274;-84
2023/07/31 05:15:41;;;;;;;;;;;;;;;22.46;64.06;94332.91;5217664;22;20475;-84
2023/07/31 05:17:43;;;;;;;;;;;;;;;22.09;65.34;94338.66;5189995;22;19915;-85
2023/07/31 05:19:45;;;;;;;;;;;;;;;22.12;65.14;94339.22;5166026;22;19953;-84
2023/07/31 05:21:48;;;;;;;;;;;;;;;22.25;64.78;94336.28;5192319;22;19926;-86
2023/07/31 05:23:50;;;;;;;;;;;;;;;22.37;64.49;94336.22;5167368;22;19946;-84
2023/07/31 05:25:55;;;;;;;;;;;;;;;22.51;63.70;94339.41;5219070;22;20054;-85
2023/07/31 05:27:56;;;;;;;;;;;;;;;22.56;63.68;94331.47;5192777;22;19981;-87
2023/07/31 05:29:59;;;;;;;;;;;;;;;22.52;63.49;94333.81;5191658;22;19915;-85
2023/07/31 05:32:01;;;;;;;;;;;;;;;22.40;63.24;94333.88;5218382;22;19921;-85
2023/07/31 05:34:05;;;;;;;;;;;;;;;22.31;64.08;94346.00;5191038;22;19919;-85
2023/07/31 05:36:07;;;;;;;;;;;;;;;22.47;62.95;94334.53;5219950;22;19997;-85
2023/07/31 05:38:08;;;;;;;;;;;;;;;22.60;62.63;94332.59;5192504;22;19926;-85
2023/07/31 05:40:14;;;;;;;;;;;;;;;22.54;62.65;94339.69;5191656;22;19945;-83
2023/07/31 05:42:15;;;;;;;;;;;;;;;22.53;62.07;94338.09;5219700;22;19915;-85
2023/07/31 05:44:17;;;;;;;;;;;;;;;22.43;62.33;94336.06;5191458;22;20313;-81
2023/07/31 05:46:19;;;;;;;;;;;;;;;22.46;61.79;94332.91;5190199;22;19919;-84
2023/07/31 05:48:21;;;;;;;;;;;;;;;22.39;61.77;94334.94;5218263;22;19921;-85
2023/07/31 05:50:23;;;;;;;;;;;;;;;22.45;61.86;94335.81;5217037;22;20342;-84
2023/07/31 05:52:25;;;;;;;;;;;;;;;22.43;61.54;94337.91;5166258;22;19915;-83
2023/07/31 05:54:26;;;;;;;;;;;;;;;22.51;61.29;94336.72;5166578;22;19919;-84
2023/07/31 05:56:28;;;;;;;;;;;;;;;22.41;60.66;94342.69;5220429;22;20298;-82
2023/07/31 05:58:31;;;;;;;;;;;;;;;22.44;60.43;94335.00;5202746;22;19934;-84
2023/07/31 06:00:33;;;;;;;;;;;;;;;22.51;59.83;94339.41;5227017;22;19961;-83
2023/07/31 06:02:36;;;;;;;;;;;;;;;22.49;59.76;94340.44;5195030;22;20315;-85
2023/07/31 06:04:38;;;;;;;;;;;;;;;22.63;58.68;94346.28;5221617;22;19915;-84
2023/07/31 06:06:40;;;;;;;;;;;;;;;22.63;58.36;94342.81;5224248;22;20005;-86
2023/07/31 06:08:42;;;;;;;;;;;;;;;22.69;58.49;94342.63;5197759;22;20133;-86
2023/07/31 06:10:44;;;;;;;;;;;;;;;22.83;57.78;94345.78;5171117;22;19922;-84
2023/07/31 06:12:47;;;;;;;;;;;;;;;22.93;56.18;94355.81;5198126;22;20006;-84
2023/07/31 06:14:49;;;;;;;;;;;;;;;22.97;55.88;94350.78;5199006;22;19930;-84
2023/07/31 06:16:51;;;;;;;;;;;;;;;22.99;56.20;94354.81;5170974;22;19991;-84
2023/07/31 06:18:52;;;;;;;;;;;;;;;22.92;56.28;94353.38;5192738;22;19987;-83
2023/07/31 06:20:54;;;;;;;;;;;;;;;22.85;56.55;94357.03;5220110;22;19919;-84
2023/07/31 06:22:56;;;;;;;;;;;;;;;22.81;56.98;94350.56;5167600;22;20243;-84
2023/07/31 06:24:58;;;;;;;;;;;;;;;22.99;56.48;94356.69;5192397;22;19921;-85
2023/07/31 06:27:00;;;;;;;;;;;;;;;23.11;55.86;94357.44;5196264;22;19958;-85
2023/07/31 06:29:02;;;;;;;;;;;;;;;23.18;55.89;94354.59;5164968;22;19915;-85
2023/07/31 06:31:04;;;;;;;;;;;;;;;23.35;55.71;94360.72;5165637;22;20131;-88
2023/07/31 06:33:06;;;;;;;;;;;;;;;23.27;55.69;94348.59;5219480;22;20306;-85
2023/07/31 06:35:13;;;;;;;;;;;;;;;23.38;55.28;94359.41;5191528;22;19963;-86
2023/07/31 06:37:15;;;;;;;;;;;;;;;23.28;55.34;94357.41;5219083;22;19915;-84
2023/07/31 06:39:21;;;;;;;;;;;;;;;23.45;55.75;94354.69;5190740;22;19969;-85
2023/07/31 06:41:23;;;;;;;;;;;;;;;23.48;55.32;94355.00;5217200;22;19923;-85
2023/07/31 06:43:26;;;;;;;;;;;;;;;23.31;55.91;94354.22;5218444;22;19923;-85
2023/07/31 06:45:30;;;;;;;;;;;;;;;23.50;55.73;94349.41;5189261;22;19919;-84
2023/07/31 06:47:32;;;;;;;;;;;;;;;23.30;55.91;94361.44;5190908;22;19915;-84
2023/07/31 06:49:33;;;;;;;;;;;;;;;22.81;57.42;94358.56;5192422;22;19934;-83
2023/07/31 06:51:36;;;;;;;;;;;;;;;22.68;58.32;94349.00;5218592;22;19974;-82
2023/07/31 06:53:39;;;;;;;;;;;;;;;22.98;57.78;94361.22;5223944;22;19914;-82
2023/07/31 06:55:43;;;;;;;;;;;;;;;22.73;57.86;94348.28;5215423;22;19978;-82
2023/07/31 06:57:45;;;;;;;;;;;;;;;22.59;57.92;94365.69;5215970;22;19938;-80
2023/07/31 06:59:48;;;;;;;;;;;;;;;22.69;57.42;94371.19;5188599;22;19943;-81
2023/07/31 07:01:49;;;;;;;;;;;;;;;22.89;56.76;94341.34;5213117;22;19915;-78
2023/07/31 07:03:51;;;;;;;;;;;;;;;22.94;56.49;94352.09;5215570;22;19915;-81
2023/07/31 07:05:53;;;;;;;;;;;;;;;22.99;55.90;94359.34;5216895;22;19926;-82
2023/07/31 07:07:55;;;;;;;;;;;;;;;23.12;55.62;94345.69;5216932;22;19963;-86
2023/07/31 07:10:00;;;;;;;;;;;;;;;23.15;55.56;94352.41;5194253;22;19922;-87
2023/07/31 07:12:02;;;;;;;;;;;;;;;23.25;55.18;94352.53;5195596;22;19987;-83
2023/07/31 07:14:06;;;;;;;;;;;;;;;22.68;56.76;94362.38;5223494;22;19923;-86
2023/07/31 07:16:10;;;;;;;;;;;;;;;22.47;57.17;94350.53;5192746;22;19915;-86
2023/07/31 07:18:15;;;;;;;;;;;;;;;22.62;56.52;94347.31;5194539;22;19915;-88
2023/07/31 07:20:16;;;;;;;;;;;;;;;22.82;55.55;94357.53;5205760;22;19951;-84
2023/07/31 07:22:21;;;;;;;;;;;;;;;23.03;55.27;94353.31;5223431;22;19990;-86
2023/07/31 07:24:22;;;;;;;;;;;;;;;23.15;54.89;94355.91;5221854;22;19918;-88
2023/07/31 07:26:24;;;;;;;;;;;;;;;23.24;54.29;94351.75;5193639;22;19953;-87
2023/07/31 07:28:28;;;;;;;;;;;;;;;23.27;54.63;94343.25;5221373;22;19922;-88
2023/07/31 07:30:30;;;;;;;;;;;;;;;23.38;54.33;94343.34;5192168;22;19919;-83
2023/07/31 07:32:32;;;;;;;;;;;;;;;23.40;54.19;94346.59;5191272;22;20005;-82
2023/07/31 07:34:33;;;;;;;;;;;;;;;23.28;54.04;94344.06;5191332;22;19924;-85
2023/07/31 07:36:35;;;;;;;;;;;;;;;23.41;53.89;94335.66;5220105;22;19922;-84
2023/07/31 07:38:39;;;;;;;;;;;;;;;23.27;53.84;94345.91;5222423;22;19918;-82
2023/07/31 07:40:40;;;;;;;;;;;;;;;23.29;54.33;94349.13;5221339;22;19914;-85
2023/07/31 07:42:42;;;;;;;;;;;;;;;23.10;54.33;94353.13;5167861;23;19920;-84
2023/07/31 07:44:44;;;;;;;;;;;;;;;23.25;53.25;94356.03;5190852;22;19923;-83
2023/07/31 07:46:46;;;;;;;;;;;;;;;23.34;53.71;94358.28;5219414;22;19994;-82
2023/07/31 07:48:47;;;;;;;;;;;;;;;23.23;54.11;94363.50;5220433;22;20265;-84
2023/07/31 07:50:49;;;;;;;;;;;;;;;23.12;53.49;94358.25;5169401;22;20291;-87
2023/07/31 07:52:51;;;;;;;;;;;;;;;22.92;54.29;94359.53;5170974;22;19915;-82
2023/07/31 07:54:52;;;;;;;;;;;;;;;23.04;54.03;94348.78;5189617;22;20006;-80
2023/07/31 07:56:54;;;;;;;;;;;;;;;23.09;54.15;94360.34;5219909;22;20325;-81
2023/07/31 07:58:57;;;;;;;;;;;;;;;23.19;52.23;94369.56;5219999;22;19937;-81
2023/07/31 08:00:59;;;;;;;;;;;;;;;23.37;52.25;94371.16;5218383;22;19997;-82
2023/07/31 08:03:01;;;;;;;;;;;;;;;23.52;51.83;94372.16;5214376;22;19914;-79
2023/07/31 08:05:03;;;;;;;;;;;;;;;23.60;52.29;94360.25;5187590;22;19919;-82
2023/07/31 08:07:04;;;;;;;;;;;;;;;23.76;52.73;94374.63;5215829;22;20025;-81
2023/07/31 08:09:06;;;;;;;;;;;;;;;23.86;51.99;94355.22;5216176;22;19961;-83
2023/07/31 08:11:08;;;;;;;;;;;;;;;23.85;52.16;94364.28;5187017;22;19963;-81
2023/07/31 08:13:10;;;;;;;;;;;;;;;24.07;51.70;94365.09;5216180;22;19921;-81
2023/07/31 08:15:12;;;;;;;;;;;;;;;24.07;50.98;94357.06;5187518;22;19934;-80
2023/07/31 08:17:14;;;;;;;;;;;;;;;24.20;51.02;94360.38;5214553;22;19951;-82
2023/07/31 08:19:15;;;;;;;;;;;;;;;24.14;51.11;94377.47;5216095;22;19964;-80
2023/07/31 08:21:17;;;;;;;;;;;;;;;24.03;50.90;94366.66;5216404;22;19915;-81
2023/07/31 08:23:19;;;;;;;;;;;;;;;23.92;50.88;94371.09;5188316;22;20576;-82
2023/07/31 08:25:20;;;;;;;;;;;;;;;23.89;51.27;94374.25;5216781;22;19943;-82
2023/07/31 08:27:22;;;;;;;;;;;;;;;23.92;51.00;94371.09;5190101;22;19915;-81
2023/07/31 08:29:24;;;;;;;;;;;;;;;24.07;49.91;94364.25;5218731;22;20191;-83
2023/07/31 08:31:26;;;;;;;;;;;;;;;24.45;49.78;94363.31;5192537;22;19915;-85
2023/07/31 08:33:28;;;;;;;;;;;;;;;24.14;50.36;94367.56;5218133;22;19925;-82
2023/07/31 08:35:30;;;;;;;;;;;;;;;23.94;51.02;94365.50;5190857;22;19915;-83
2023/07/31 08:37:31;;;;;;;;;;;;;;;23.68;51.73;94362.47;5190463;22;20525;-82
2023/07/31 08:39:33;;;;;;;;;;;;;;;23.85;51.40;94362.41;5217918;22;20648;-84
2023/07/31 08:41:41;;;;;;;;;;;;;;;23.68;51.50;94359.81;5190000;22;20017;-83
2023/07/31 08:43:42;;;;;;;;;;;;;;;23.30;52.12;94361.44;5217566;22;19919;-80
2023/07/31 08:45:44;;;;;;;;;;;;;;;23.51;51.75;94365.22;5188693;22;19915;-79
2023/07/31 08:47:46;;;;;;;;;;;;;;;23.78;51.43;94358.34;5214586;22;19926;-81
2023/07/31 08:49:49;;;;;;;;;;;;;;;23.85;50.60;94361.63;5218035;22;20035;-81
2023/07/31 08:51:50;;;;;;;;;;;;;;;24.01;49.98;94352.72;5190954;22;19915;-83
2023/07/31 08:53:57;;;;;;;;;;;;;;;24.28;49.35;94359.94;5190199;22;19915;-82
2023/07/31 08:55:58;;;;;;;;;;;;;;;24.53;49.06;94349.50;5190337;22;19961;-81
2023/07/31 08:58:00;;;;;;;;;;;;;;;24.65;48.92;94357.38;5189876;22;19919;-78
2023/07/31 09:00:03;;;;;;;;;;;;;;;24.11;49.37;94358.19;5190437;22;20069;-79
2023/07/31 09:02:06;;;;;;;;;;;;;;;24.39;49.01;94355.50;5217454;22;20197;-81
2023/07/31 09:04:07;;;;;;;;;;;;;;;24.60;48.48;94353.84;5189627;22;20283;-84
2023/07/31 09:06:09;;;;;;;;;;;;;;;24.80;47.80;94354.03;5218564;22;20014;-83
2023/07/31 09:08:12;;;;;;;;;;;;;;;25.01;47.19;94348.78;5190791;22;19915;-81
2023/07/31 09:10:14;;;;;;;;;;;;;;;25.20;46.35;94357.25;5190011;22;20693;-82
2023/07/31 09:12:15;;;;;;;;;;;;;;;25.26;46.14;94343.63;5189972;22;19977;-81
2023/07/31 09:14:17;;;;;;;;;;;;;;;25.27;45.81;94345.22;5190703;22;20219;-81
2023/07/31 09:16:19;;;;;;;;;;;;;;;25.25;45.91;94339.34;5216021;22;19976;-80
2023/07/31 09:18:22;;;;;;;;;;;;;;;25.21;46.36;94343.63;5216451;22;19984;-82
2023/07/31 09:20:24;;;;;;;;;;;;;;;25.38;46.56;94343.41;5217240;22;19919;-82
2023/07/31 09:22:32;;;;;;;;;;;;;;;25.45;46.96;94345.88;5216127;22;19958;-81
2023/07/31 09:24:37;;;;;;;;;;;;;;;25.65;46.75;94337.91;5216461;22;19915;-83
2023/07/31 09:26:38;;;;;;;;;;;;;;;25.96;45.64;94335.38;5217021;22;20246;-81
2023/07/31 09:28:41;;;;;;;;;;;;;;;25.86;45.78;94335.31;5217233;22;20388;-82
2023/07/31 09:30:47;;;;;;;;;;;;;;;25.72;45.93;94329.63;5218320;22;19915;-82
2023/07/31 09:32:49;;;;;;;;;;;;;;;25.58;46.34;94337.38;5220511;22;19961;-84
2023/07/31 09:34:51;;;;;;;;;;;;;;;25.80;45.93;94328.31;5229887;22;19914;-84
2023/07/31 09:36:53;;;;;;;;;;;;;;;26.07;45.19;94318.25;5218390;22;19914;-84
2023/07/31 09:38:55;;;;;;;;;;;;;;;26.26;44.71;94333.84;5188479;22;19915;-81
2023/07/31 09:40:57;;;;;;;;;;;;;;;26.12;45.20;94320.13;5215521;22;19945;-84
2023/07/31 09:43:00;;;;;;;;;;;;;;;26.34;44.65;94309.16;5189041;22;19943;-82
2023/07/31 09:45:09;;;;;;;;;;;;;;;26.49;44.54;94311.03;5215869;22;19958;-80
2023/07/31 09:47:23;;;;;;;;;;;;;;;26.52;44.41;94319.38;5216168;22;19949;-80
2023/07/31 09:49:26;;;;;;;;;;;;;;;26.05;44.89;94330.28;5215079;22;19915;-82
2023/07/31 09:51:28;;;;;;;;;;;;;;;26.13;44.83;94322.53;5215826;22;19929;-80
2023/07/31 09:53:32;;;;;;;;;;;;;;;26.25;44.46;94321.50;5189470;22;19925;-81
2023/07/31 09:55:35;;;;;;;;;;;;;;;26.35;44.43;94318.81;5217344;22;19915;-82
2023/07/31 09:57:40;;;;;;;;;;;;;;;26.48;44.02;94322.84;5216590;22;19915;-81
2023/07/31 09:59:41;;;;;;;;;;;;;;;26.33;43.75;94315.59;5217646;22;20068;-84
2023/07/31 10:01:44;;;;;;;;;;;;;;;25.94;44.51;94308.00;5216277;22;20021;-83
2023/07/31 10:03:46;;;;;;;;;;;;;;;25.59;45.58;94314.81;5189089;22;20509;-83
2023/07/31 10:05:50;;;;;;;;;;;;;;;25.30;45.83;94323.28;5217722;22;19950;-83
2023/07/31 10:07:53;;;;;;;;;;;;;;;25.11;46.04;94312.16;5219454;22;20319;-83
2023/07/31 10:09:55;;;;;;;;;;;;;;;25.43;45.80;94318.53;5217790;22;19925;-82
2023/07/31 10:11:59;;;;;;;;;;;;;;;25.87;44.61;94307.41;5192900;22;20408;-82
2023/07/31 10:14:02;;;;;;;;;;;;;;;26.27;43.92;94312.09;5191386;22;19915;-81
2023/07/31 10:16:04;;;;;;;;;;;;;;;26.33;43.22;94310.22;5165984;22;20011;-81
2023/07/31 10:18:06;;;;;;;;;;;;;;;26.21;42.52;94309.66;5191449;22;19919;-83
2023/07/31 10:20:09;;;;;;;;;;;;;;;25.79;43.26;94310.59;5192315;22;19989;-83
2023/07/31 10:22:11;;;;;;;;;;;;;;;25.69;43.70;94312.19;5199744;22;19915;-83
2023/07/31 10:24:14;;;;;;;;;;;;;;;25.86;43.81;94306.63;5204684;22;19959;-82
2023/07/31 10:26:16;;;;;;;;;;;;;;;25.99;44.07;94291.13;5204936;22;20258;-85
2023/07/31 10:28:18;;;;;;;;;;;;;;;26.12;43.80;94302.13;5201344;22;19915;-82
2023/07/31 10:30:22;;;;;;;;;;;;;;;26.13;43.50;94301.06;5199027;22;19934;-82
2023/07/31 10:32:24;;;;;;;;;;;;;;;26.19;43.49;94309.13;5230591;22;19925;-82
2023/07/31 10:34:25;;;;;;;;;;;;;;;26.32;42.81;94297.88;5178859;22;19991;-80
2023/07/31 10:36:27;;;;;;;;;;;;;;;26.30;42.93;94289.28;5231356;22;19984;-80
2023/07/31 10:38:29;;;;;;;;;;;;;;;26.18;42.81;94294.91;5231848;22;19964;-82